Time;durP1;ratioP1;P1;durP2;ratioP2;P2;SDS_P1;SDS_P2;PMS_P1;PMS_P2;Temp;Humidity;BMP_temperature;BMP_pressure;BME280_temperature;BME280_humidity;BME280_pressure;Samples;Min_cycle;Max_cycle;Signal;HPM_P1;HPM_P2
2022/07/06 00:01:25;;;;;;;1.85;0.90;;;;;;;;;;5008819;28;20034;-57
2022/07/06 00:03:51;;;;;;;2.45;0.50;;;;;;;;;;5008544;28;20033;-58
2022/07/06 00:06:17;;;;;;;2.20;0.70;;;;;;;;;;5006680;28;20029;-57
2022/07/06 00:08:44;;;;;;;1.90;0.60;;;;;;;;;;5010371;28;20029;-58
2022/07/06 00:11:10;;;;;;;1.27;0.60;;;;;;;;;;5016288;28;20033;-57
2022/07/06 00:13:36;;;;;;;2.30;0.98;;;;;;;;;;5009427;28;20128;-58
2022/07/06 00:16:02;;;;;;;1.33;0.68;;;;;;;;;;5009116;28;20117;-57
2022/07/06 00:18:28;;;;;;;1.83;0.60;;;;;;;;;;5009362;28;20022;-58
2022/07/06 00:20:54;;;;;;;2.40;0.80;;;;;;;;;;5009862;28;20042;-57
2022/07/06 00:23:20;;;;;;;3.60;0.60;;;;;;;;;;5015583;28;20056;-58
2022/07/06 00:25:47;;;;;;;1.38;0.50;;;;;;;;;;5013510;28;20531;-56
2022/07/06 00:28:13;;;;;;;2.78;0.77;;;;;;;;;;5027761;28;20070;-58
2022/07/06 00:30:39;;;;;;;1.67;0.70;;;;;;;;;;5032916;28;20037;-57
2022/07/06 00:33:06;;;;;;;2.22;0.70;;;;;;;;;;5014302;28;20030;-57
2022/07/06 00:35:32;;;;;;;1.00;0.70;;;;;;;;;;5031765;28;20041;-56
2022/07/06 00:37:58;;;;;;;1.23;0.55;;;;;;;;;;5014727;28;20029;-55
2022/07/06 00:40:24;;;;;;;2.13;0.80;;;;;;;;;;5030506;28;20025;-57
2022/07/06 00:42:50;;;;;;;3.50;0.88;;;;;;;;;;5032453;28;20160;-58
2022/07/06 00:45:17;;;;;;;4.20;0.98;;;;;;;;;;5031543;28;20018;-57
2022/07/06 00:47:43;;;;;;;1.25;0.73;;;;;;;;;;5033237;28;20100;-58
2022/07/06 00:50:15;;;;;;;1.77;0.70;;;;;;;;;;5031077;28;20022;-57
2022/07/06 00:52:41;;;;;;;0.85;0.52;;;;;;;;;;5031906;28;20080;-57
2022/07/06 00:55:08;;;;;;;1.08;0.73;;;;;;;;;;5030501;28;20033;-58
2022/07/06 00:57:34;;;;;;;3.55;0.82;;;;;;;;;;5031133;28;20037;-57
2022/07/06 01:00:01;;;;;;;3.72;0.73;;;;;;;;;;5030917;28;20530;-57
2022/07/06 01:02:27;;;;;;;2.35;0.90;;;;;;;;;;5032372;28;20034;-59
2022/07/06 01:04:52;;;;;;;3.00;0.63;;;;;;;;;;5032299;28;20473;-58
2022/07/06 01:07:18;;;;;;;2.13;0.85;;;;;;;;;;5032703;28;20022;-59
2022/07/06 01:09:44;;;;;;;1.25;0.70;;;;;;;;;;5031529;28;20025;-59
2022/07/06 01:12:11;;;;;;;5.20;1.00;;;;;;;;;;5031654;28;20693;-59
2022/07/06 01:14:37;;;;;;;1.35;0.70;;;;;;;;;;5030357;28;20590;-60
2022/07/06 01:17:03;;;;;;;1.75;0.80;;;;;;;;;;5030805;28;20460;-59
2022/07/06 01:19:29;;;;;;;3.88;0.80;;;;;;;;;;5039301;28;20029;-59
2022/07/06 01:21:55;;;;;;;2.40;0.60;;;;;;;;;;5031386;28;20033;-59
2022/07/06 01:24:21;;;;;;;3.20;0.70;;;;;;;;;;5031085;28;20238;-59
2022/07/06 01:26:47;;;;;;;1.52;0.77;;;;;;;;;;5030310;28;20084;-59
2022/07/06 01:29:13;;;;;;;3.38;0.80;;;;;;;;;;5031365;28;20033;-59
2022/07/06 01:31:47;;;;;;;2.33;0.90;;;;;;;;;;5030667;28;20092;-59
2022/07/06 01:34:14;;;;;;;2.88;0.80;;;;;;;;;;5030109;28;20033;-59
2022/07/06 01:36:40;;;;;;;1.88;0.80;;;;;;;;;;5032064;28;20033;-59
2022/07/06 01:39:08;;;;;;;1.65;0.77;;;;;;;;;;5029206;28;20106;-59
2022/07/06 01:41:34;;;;;;;2.30;0.98;;;;;;;;;;5029296;28;20040;-58
2022/07/06 01:44:00;;;;;;;1.63;0.88;;;;;;;;;;5030808;28;20529;-59
2022/07/06 01:46:26;;;;;;;2.95;0.65;;;;;;;;;;5025276;28;20491;-59
2022/07/06 01:48:52;;;;;;;4.32;0.82;;;;;;;;;;5029378;28;20072;-58
2022/07/06 01:51:18;;;;;;;2.38;0.98;;;;;;;;;;5030988;28;20064;-58
2022/07/06 01:53:44;;;;;;;3.88;0.95;;;;;;;;;;5030282;28;20033;-59
2022/07/06 01:56:10;;;;;;;3.08;1.17;;;;;;;;;;5036492;28;20389;-59
2022/07/06 01:58:36;;;;;;;2.80;0.70;;;;;;;;;;5031406;28;20029;-59
2022/07/06 02:01:13;;;;;;;1.85;0.70;;;;;;;;;;5028834;28;20041;-59
2022/07/06 02:03:39;;;;;;;3.42;0.80;;;;;;;;;;5030653;28;20397;-59
2022/07/06 02:06:06;;;;;;;3.33;0.90;;;;;;;;;;5029452;28;20036;-59
2022/07/06 02:08:32;;;;;;;3.03;1.13;;;;;;;;;;5031079;28;20029;-59
2022/07/06 02:10:58;;;;;;;3.28;1.30;;;;;;;;;;5030056;28;20033;-58
2022/07/06 02:13:24;;;;;;;2.05;1.20;;;;;;;;;;5028877;28;20028;-59
2022/07/06 02:15:50;;;;;;;1.13;0.70;;;;;;;;;;5031102;28;20025;-59
2022/07/06 02:18:16;;;;;;;2.00;0.90;;;;;;;;;;5030897;28;20036;-59
2022/07/06 02:20:42;;;;;;;4.20;1.23;;;;;;;;;;5029492;28;20043;-60
2022/07/06 02:23:08;;;;;;;3.47;1.00;;;;;;;;;;5030558;28;20033;-59
2022/07/06 02:25:34;;;;;;;2.15;0.88;;;;;;;;;;5028929;28;20113;-59
2022/07/06 02:28:00;;;;;;;2.72;0.88;;;;;;;;;;5014041;28;20509;-59
2022/07/06 02:30:26;;;;;;;2.10;1.08;;;;;;;;;;5010566;28;20030;-59
2022/07/06 02:32:52;;;;;;;4.50;0.80;;;;;;;;;;5009614;28;20478;-57
2022/07/06 02:35:18;;;;;;;2.47;1.02;;;;;;;;;;5010014;28;20032;-60
2022/07/06 02:37:44;;;;;;;1.88;0.90;;;;;;;;;;5011163;28;20029;-59
2022/07/06 02:40:10;;;;;;;4.32;1.25;;;;;;;;;;5008794;28;20033;-60
2022/07/06 02:42:36;;;;;;;2.28;1.02;;;;;;;;;;5011480;28;20381;-59
2022/07/06 02:45:02;;;;;;;4.53;0.90;;;;;;;;;;5023337;28;20033;-59
2022/07/06 02:47:28;;;;;;;2.15;0.95;;;;;;;;;;5010850;28;20026;-59
2022/07/06 02:49:54;;;;;;;2.20;0.77;;;;;;;;;;5008758;28;20045;-59
2022/07/06 02:52:20;;;;;;;4.47;0.98;;;;;;;;;;5010633;28;20105;-59
2022/07/06 02:54:48;;;;;;;1.88;1.25;;;;;;;;;;5009669;28;20121;-59
2022/07/06 02:57:14;;;;;;;2.70;0.90;;;;;;;;;;5001615;28;20030;-60
2022/07/06 02:59:40;;;;;;;3.90;1.40;;;;;;;;;;5010608;28;20034;-59
2022/07/06 03:02:06;;;;;;;3.97;1.52;;;;;;;;;;5009366;28;20109;-60
2022/07/06 03:04:32;;;;;;;2.15;0.98;;;;;;;;;;5009685;28;20081;-60
2022/07/06 03:06:58;;;;;;;2.15;0.98;;;;;;;;;;5010450;28;20026;-59
2022/07/06 03:09:25;;;;;;;1.70;0.82;;;;;;;;;;5011049;28;20037;-59
2022/07/06 03:11:51;;;;;;;2.83;1.17;;;;;;;;;;5010241;28;20407;-59
2022/07/06 03:14:16;;;;;;;2.40;1.00;;;;;;;;;;5009087;28;20045;-59
2022/07/06 03:16:42;;;;;;;4.22;0.90;;;;;;;;;;5009777;28;20135;-60
2022/07/06 03:19:08;;;;;;;4.32;1.08;;;;;;;;;;5010181;28;20034;-59
2022/07/06 03:21:34;;;;;;;2.70;1.10;;;;;;;;;;5011706;28;20026;-58
2022/07/06 03:24:00;;;;;;;3.65;1.02;;;;;;;;;;5009349;28;20030;-59
2022/07/06 03:26:27;;;;;;;2.45;1.10;;;;;;;;;;5011603;28;20076;-59
2022/07/06 03:28:53;;;;;;;3.97;0.85;;;;;;;;;;5009765;28;20032;-58
2022/07/06 03:31:19;;;;;;;1.95;0.85;;;;;;;;;;5008420;28;20082;-59
2022/07/06 03:33:45;;;;;;;1.25;0.88;;;;;;;;;;5010881;28;20042;-58
2022/07/06 03:36:11;;;;;;;3.72;1.20;;;;;;;;;;5016292;28;20037;-59
2022/07/06 03:38:37;;;;;;;4.05;1.02;;;;;;;;;;5010413;28;20410;-59
2022/07/06 03:41:03;;;;;;;2.70;1.42;;;;;;;;;;5010286;28;20030;-59
2022/07/06 03:43:30;;;;;;;3.17;0.95;;;;;;;;;;5010332;28;20030;-59
2022/07/06 03:45:56;;;;;;;3.53;1.00;;;;;;;;;;5009426;28;20022;-59
2022/07/06 03:48:21;;;;;;;5.05;1.33;;;;;;;;;;5009076;28;20033;-60
2022/07/06 03:50:47;;;;;;;2.85;1.17;;;;;;;;;;5009469;28;20025;-59
2022/07/06 03:53:13;;;;;;;4.07;1.40;;;;;;;;;;5010078;28;20112;-59
2022/07/06 03:55:39;;;;;;;1.75;0.95;;;;;;;;;;5011542;28;20060;-59
2022/07/06 03:58:05;;;;;;;3.40;1.40;;;;;;;;;;5012185;28;20121;-60
2022/07/06 04:00:32;;;;;;;3.88;1.42;;;;;;;;;;5012166;28;20501;-57
2022/07/06 04:02:58;;;;;;;2.75;0.98;;;;;;;;;;5014711;28;20045;-60
2022/07/06 04:05:24;;;;;;;3.15;1.20;;;;;;;;;;5011168;28;20022;-59
2022/07/06 04:07:50;;;;;;;5.00;0.98;;;;;;;;;;5011566;28;20714;-59
2022/07/06 04:10:16;;;;;;;2.05;1.00;;;;;;;;;;5011711;28;20355;-59
2022/07/06 04:12:43;;;;;;;2.00;0.90;;;;;;;;;;5013130;28;20038;-59
2022/07/06 04:15:10;;;;;;;1.92;0.85;;;;;;;;;;5011940;28;20433;-60
2022/07/06 04:17:55;;;;;;;1.95;0.93;;;;;;;;;;5016739;28;20517;-60
2022/07/06 04:20:22;;;;;;;2.42;0.77;;;;;;;;;;5012190;28;20088;-59
2022/07/06 04:22:48;;;;;;;6.20;1.23;;;;;;;;;;5016045;28;20034;-59
2022/07/06 04:25:14;;;;;;;2.40;0.57;;;;;;;;;;5009130;28;20486;-59
2022/07/06 04:27:40;;;;;;;3.13;0.93;;;;;;;;;;5024877;28;20100;-60
2022/07/06 04:30:07;;;;;;;2.03;1.00;;;;;;;;;;5032126;28;20482;-59
2022/07/06 04:32:33;;;;;;;1.70;1.00;;;;;;;;;;5028339;28;20029;-59
2022/07/06 04:34:59;;;;;;;2.88;0.85;;;;;;;;;;5023314;28;20037;-59
2022/07/06 04:37:25;;;;;;;3.42;0.82;;;;;;;;;;5030122;28;20048;-59
2022/07/06 04:39:51;;;;;;;3.28;1.23;;;;;;;;;;5030126;28;20522;-59
2022/07/06 04:42:17;;;;;;;3.45;0.90;;;;;;;;;;5030408;28;20037;-59
2022/07/06 04:44:43;;;;;;;3.60;1.38;;;;;;;;;;5026789;28;20064;-58
2022/07/06 04:47:09;;;;;;;1.90;0.73;;;;;;;;;;5031669;28;20037;-59
2022/07/06 04:49:35;;;;;;;2.35;0.82;;;;;;;;;;5022240;28;20021;-59
2022/07/06 04:52:01;;;;;;;4.95;0.90;;;;;;;;;;5031895;28;20036;-59
2022/07/06 04:54:28;;;;;;;4.57;1.20;;;;;;;;;;5032059;28;20476;-57
2022/07/06 04:56:54;;;;;;;3.25;1.30;;;;;;;;;;5021611;28;20040;-58
2022/07/06 04:59:19;;;;;;;1.85;0.90;;;;;;;;;;5028729;28;20485;-59
2022/07/06 05:01:45;;;;;;;4.15;1.33;;;;;;;;;;5026696;28;20126;-58
2022/07/06 05:04:12;;;;;;;3.85;0.90;;;;;;;;;;5028902;28;20021;-59
2022/07/06 05:06:38;;;;;;;3.25;0.90;;;;;;;;;;5023944;28;20496;-59
2022/07/06 05:09:03;;;;;;;2.58;1.40;;;;;;;;;;5030022;28;20126;-58
2022/07/06 05:11:29;;;;;;;7.90;0.82;;;;;;;;;;5028492;28;20374;-58
2022/07/06 05:13:55;;;;;;;4.03;1.20;;;;;;;;;;5032928;28;20029;-59
2022/07/06 05:16:22;;;;;;;5.68;1.02;;;;;;;;;;5026491;28;20490;-59
2022/07/06 05:18:48;;;;;;;5.75;1.10;;;;;;;;;;5027846;28;20037;-58
2022/07/06 05:21:14;;;;;;;3.85;1.65;;;;;;;;;;5031005;28;20041;-59
2022/07/06 05:23:40;;;;;;;4.78;1.02;;;;;;;;;;5029190;28;20100;-58
2022/07/06 05:26:06;;;;;;;2.72;0.90;;;;;;;;;;5027968;28;20379;-59
2022/07/06 05:28:32;;;;;;;3.08;1.00;;;;;;;;;;5027284;28;20775;-59
2022/07/06 05:30:58;;;;;;;6.55;0.82;;;;;;;;;;5031834;28;20029;-59
2022/07/06 05:33:25;;;;;;;3.30;0.70;;;;;;;;;;5028221;28;20064;-58
2022/07/06 05:35:51;;;;;;;3.75;1.00;;;;;;;;;;5029782;28;20018;-58
2022/07/06 05:38:17;;;;;;;3.50;0.70;;;;;;;;;;5013538;28;20034;-57
2022/07/06 05:40:43;;;;;;;2.53;0.77;;;;;;;;;;5031015;28;20034;-59
2022/07/06 05:43:09;;;;;;;3.92;1.00;;;;;;;;;;5013226;28;20030;-59
2022/07/06 05:45:35;;;;;;;2.45;0.93;;;;;;;;;;5031129;28;20029;-57
2022/07/06 05:50:46;;;;;;;4.50;0.82;;;;;;;;;;5030520;28;20087;-59
2022/07/06 05:53:12;;;;;;;7.90;1.00;;;;;;;;;;5031340;28;20459;-59
2022/07/06 05:55:38;;;;;;;5.03;0.85;;;;;;;;;;5031609;28;20025;-59
2022/07/06 05:58:04;;;;;;;6.68;1.00;;;;;;;;;;5030078;28;20040;-59
2022/07/06 06:00:30;;;;;;;7.35;1.50;;;;;;;;;;5029846;28;20030;-59
2022/07/06 06:02:56;;;;;;;2.00;0.70;;;;;;;;;;5030024;28;20040;-59
2022/07/06 06:05:22;;;;;;;2.40;0.88;;;;;;;;;;5031551;28;20021;-59
2022/07/06 06:07:50;;;;;;;5.50;0.90;;;;;;;;;;5030380;28;20088;-59
2022/07/06 06:10:17;;;;;;;3.38;1.13;;;;;;;;;;5030262;28;20044;-58
2022/07/06 06:12:44;;;;;;;2.85;0.80;;;;;;;;;;5035008;28;20037;-59
2022/07/06 06:15:10;;;;;;;4.95;1.20;;;;;;;;;;5030851;28;20113;-58
2022/07/06 06:17:37;;;;;;;7.82;1.63;;;;;;;;;;5030556;28;20464;-58
2022/07/06 06:20:03;;;;;;;3.47;1.05;;;;;;;;;;5029965;28;20037;-59
2022/07/06 06:22:29;;;;;;;3.85;1.15;;;;;;;;;;5029395;28;20069;-59
2022/07/06 06:24:55;;;;;;;4.75;1.20;;;;;;;;;;5030657;28;20053;-59
2022/07/06 06:27:21;;;;;;;2.67;0.70;;;;;;;;;;5031148;28;20075;-59
2022/07/06 06:29:47;;;;;;;4.32;0.88;;;;;;;;;;5029989;28;20034;-58
2022/07/06 06:32:14;;;;;;;5.63;0.90;;;;;;;;;;5029762;28;20063;-59
2022/07/06 06:34:40;;;;;;;3.17;1.15;;;;;;;;;;5040956;28;20024;-59
2022/07/06 06:37:07;;;;;;;4.20;0.90;;;;;;;;;;5030304;28;20495;-59
2022/07/06 06:39:33;;;;;;;11.82;1.17;;;;;;;;;;5029205;28;20037;-58
2022/07/06 06:41:59;;;;;;;3.40;1.25;;;;;;;;;;5028871;28;20538;-59
2022/07/06 06:44:25;;;;;;;4.13;1.13;;;;;;;;;;5030279;28;20464;-57
2022/07/06 06:46:54;;;;;;;4.55;1.58;;;;;;;;;;5030029;28;20026;-59
2022/07/06 06:49:20;;;;;;;3.22;0.80;;;;;;;;;;5031225;28;20060;-59
2022/07/06 06:51:46;;;;;;;3.95;1.25;;;;;;;;;;5029637;28;20056;-59
2022/07/06 06:54:12;;;;;;;3.50;1.10;;;;;;;;;;5036186;28;20037;-59
2022/07/06 06:56:38;;;;;;;4.85;0.98;;;;;;;;;;5028254;28;20083;-58
2022/07/06 06:59:04;;;;;;;3.38;1.00;;;;;;;;;;5033628;28;20059;-59
2022/07/06 07:01:30;;;;;;;6.60;0.90;;;;;;;;;;5028750;28;20040;-58
2022/07/06 07:03:56;;;;;;;4.57;1.05;;;;;;;;;;5028573;28;20075;-59
2022/07/06 07:06:22;;;;;;;4.82;0.85;;;;;;;;;;5030937;28;20036;-58
2022/07/06 07:08:48;;;;;;;3.13;0.95;;;;;;;;;;5029375;28;20026;-59
2022/07/06 07:11:14;;;;;;;10.63;1.20;;;;;;;;;;5038391;28;20074;-59
2022/07/06 07:13:40;;;;;;;2.25;0.70;;;;;;;;;;5034962;28;20084;-58
2022/07/06 07:16:06;;;;;;;3.65;0.55;;;;;;;;;;5031021;28;20393;-58
2022/07/06 07:18:32;;;;;;;4.22;0.68;;;;;;;;;;5030913;28;20021;-58
2022/07/06 07:20:58;;;;;;;2.53;0.80;;;;;;;;;;5030603;28;20117;-58
2022/07/06 07:23:24;;;;;;;1.85;0.80;;;;;;;;;;5030046;28;20137;-58
2022/07/06 07:25:50;;;;;;;4.28;0.75;;;;;;;;;;5030986;28;20542;-58
2022/07/06 07:28:16;;;;;;;5.30;0.70;;;;;;;;;;5027814;28;20386;-58
2022/07/06 07:30:42;;;;;;;1.95;0.63;;;;;;;;;;5030788;28;20038;-59
2022/07/06 07:33:08;;;;;;;1.63;0.63;;;;;;;;;;5032643;28;20037;-58
2022/07/06 07:35:35;;;;;;;3.42;0.60;;;;;;;;;;5034930;28;20026;-58
2022/07/06 07:38:01;;;;;;;1.17;0.50;;;;;;;;;;5032051;28;20400;-59
2022/07/06 07:40:27;;;;;;;6.35;0.88;;;;;;;;;;5032369;28;20037;-59
2022/07/06 07:42:53;;;;;;;1.35;0.50;;;;;;;;;;5032338;28;20075;-58
2022/07/06 07:45:19;;;;;;;2.55;0.60;;;;;;;;;;5031201;28;20032;-59
2022/07/06 07:47:45;;;;;;;1.75;0.60;;;;;;;;;;5033261;28;20104;-59
2022/07/06 07:50:11;;;;;;;2.33;0.60;;;;;;;;;;5030806;28;20831;-59
2022/07/06 07:52:37;;;;;;;3.63;0.80;;;;;;;;;;5033141;28;20033;-59
2022/07/06 07:55:03;;;;;;;1.90;0.55;;;;;;;;;;5032835;28;20487;-59
2022/07/06 07:57:29;;;;;;;4.65;1.10;;;;;;;;;;5032060;28;20060;-58
2022/07/06 07:59:55;;;;;;;2.15;0.50;;;;;;;;;;5032222;28;20060;-59
2022/07/06 08:02:21;;;;;;;2.58;0.55;;;;;;;;;;5031470;28;20045;-59
2022/07/06 08:04:47;;;;;;;3.00;0.88;;;;;;;;;;5028140;28;20464;-59
2022/07/06 08:07:13;;;;;;;2.53;0.63;;;;;;;;;;5026118;28;20404;-59
2022/07/06 08:09:39;;;;;;;1.25;0.40;;;;;;;;;;5033282;28;21097;-58
2022/07/06 08:12:05;;;;;;;4.63;0.85;;;;;;;;;;5026681;28;20116;-59
2022/07/06 08:14:31;;;;;;;2.97;0.70;;;;;;;;;;5021178;28;20021;-59
2022/07/06 08:16:57;;;;;;;2.80;0.65;;;;;;;;;;5029086;28;20423;-59
2022/07/06 08:19:23;;;;;;;3.05;0.57;;;;;;;;;;5028125;28;20149;-60
2022/07/06 08:21:49;;;;;;;2.92;0.52;;;;;;;;;;5028555;28;20114;-59
2022/07/06 08:24:15;;;;;;;2.70;0.60;;;;;;;;;;5028563;28;20025;-59
2022/07/06 08:26:41;;;;;;;3.05;0.68;;;;;;;;;;5033052;28;20045;-59
2022/07/06 08:29:07;;;;;;;1.90;0.40;;;;;;;;;;5024337;28;20022;-59
2022/07/06 08:31:34;;;;;;;5.05;0.80;;;;;;;;;;5021985;28;20036;-58
2022/07/06 08:34:00;;;;;;;2.60;0.65;;;;;;;;;;5026474;28;20030;-58
2022/07/06 08:36:26;;;;;;;4.70;1.02;;;;;;;;;;5028079;28;20199;-59
2022/07/06 08:38:53;;;;;;;4.85;0.40;;;;;;;;;;5020509;28;21832;-58
2022/07/06 08:41:21;;;;;;;1.90;0.55;;;;;;;;;;5021598;28;20038;-58
2022/07/06 08:43:47;;;;;;;4.45;0.55;;;;;;;;;;5028655;28;20021;-59
2022/07/06 08:46:14;;;;;;;2.65;0.57;;;;;;;;;;5024850;28;20450;-58
2022/07/06 08:48:41;;;;;;;2.65;0.43;;;;;;;;;;5031203;28;20031;-58
2022/07/06 08:51:07;;;;;;;2.50;0.60;;;;;;;;;;5039574;28;20040;-58
2022/07/06 08:53:33;;;;;;;1.48;0.50;;;;;;;;;;5029741;28;20061;-58
2022/07/06 08:55:59;;;;;;;4.25;0.80;;;;;;;;;;5032816;28;20033;-59
2022/07/06 08:58:27;;;;;;;2.78;0.80;;;;;;;;;;5032239;28;20459;-58
2022/07/06 09:00:53;;;;;;;1.35;0.60;;;;;;;;;;5031551;28;20072;-59
2022/07/06 09:03:20;;;;;;;0.95;0.63;;;;;;;;;;5031653;28;20048;-58
2022/07/06 09:05:46;;;;;;;1.85;0.40;;;;;;;;;;5033023;28;20105;-59
2022/07/06 09:08:12;;;;;;;3.45;0.50;;;;;;;;;;5032414;28;20032;-58
2022/07/06 09:10:38;;;;;;;2.35;0.60;;;;;;;;;;5032132;28;20032;-59
2022/07/06 09:13:06;;;;;;;1.45;0.45;;;;;;;;;;5030324;28;20043;-59
2022/07/06 09:15:33;;;;;;;1.88;0.43;;;;;;;;;;5030478;28;20033;-58
2022/07/06 09:17:59;;;;;;;4.57;0.60;;;;;;;;;;5032436;28;20030;-59
2022/07/06 09:20:25;;;;;;;3.38;0.40;;;;;;;;;;5032218;28;20029;-59
2022/07/06 09:22:51;;;;;;;1.63;0.40;;;;;;;;;;5032361;28;20037;-59
2022/07/06 09:25:17;;;;;;;4.78;0.50;;;;;;;;;;5024931;28;20069;-59
2022/07/06 09:27:47;;;;;;;3.53;0.60;;;;;;;;;;5028439;28;20535;-59
2022/07/06 09:30:13;;;;;;;0.95;0.20;;;;;;;;;;5016244;28;20189;-59
2022/07/06 09:32:40;;;;;;;3.17;0.70;;;;;;;;;;5027648;28;20529;-58
2022/07/06 09:35:06;;;;;;;1.25;0.40;;;;;;;;;;5021957;28;20033;-58
2022/07/06 09:37:32;;;;;;;1.73;0.40;;;;;;;;;;5021275;28;20143;-56
2022/07/06 09:39:58;;;;;;;1.38;0.40;;;;;;;;;;5031397;28;20025;-59
2022/07/06 09:42:26;;;;;;;4.65;0.57;;;;;;;;;;5027309;28;20041;-59
2022/07/06 09:44:52;;;;;;;2.97;0.60;;;;;;;;;;5031724;28;20100;-57
2022/07/06 09:47:18;;;;;;;2.35;0.43;;;;;;;;;;5028262;28;20140;-59
2022/07/06 09:49:46;;;;;;;1.85;0.73;;;;;;;;;;5021759;28;20025;-58
2022/07/06 09:52:12;;;;;;;3.83;1.33;;;;;;;;;;5016106;28;20037;-58
2022/07/06 09:54:39;;;;;;;0.77;0.40;;;;;;;;;;5028981;28;20033;-59
2022/07/06 09:57:06;;;;;;;2.78;0.50;;;;;;;;;;5031090;28;20034;-59
2022/07/06 09:59:33;;;;;;;2.15;0.35;;;;;;;;;;5027671;28;20104;-59
2022/07/06 10:02:00;;;;;;;2.50;0.73;;;;;;;;;;5028485;28;20056;-59
2022/07/06 10:04:27;;;;;;;0.93;0.30;;;;;;;;;;5030392;28;20037;-58
2022/07/06 10:06:53;;;;;;;1.33;0.47;;;;;;;;;;5031324;28;20033;-58
2022/07/06 10:09:21;;;;;;;3.60;1.25;;;;;;;;;;5031113;28;20041;-59
2022/07/06 10:11:53;;;;;;;2.63;0.40;;;;;;;;;;5029325;28;20087;-58
2022/07/06 10:14:21;;;;;;;1.20;0.50;;;;;;;;;;5029763;28;20079;-59
2022/07/06 10:16:48;;;;;;;3.92;0.52;;;;;;;;;;5030717;28;20024;-59
2022/07/06 10:19:14;;;;;;;1.20;0.50;;;;;;;;;;5029658;28;20033;-59
2022/07/06 10:21:41;;;;;;;1.00;0.30;;;;;;;;;;5030129;28;20041;-59
2022/07/06 10:24:07;;;;;;;2.80;0.50;;;;;;;;;;5030967;28;20021;-59
2022/07/06 10:26:34;;;;;;;1.65;0.30;;;;;;;;;;5030442;28;20416;-59
2022/07/06 10:29:00;;;;;;;3.38;0.77;;;;;;;;;;5016174;28;20028;-59
2022/07/06 10:31:28;;;;;;;0.90;0.30;;;;;;;;;;5028996;28;20045;-59
2022/07/06 10:33:55;;;;;;;2.38;0.75;;;;;;;;;;5029232;28;20025;-59
2022/07/06 10:36:21;;;;;;;2.63;0.50;;;;;;;;;;5028351;28;20452;-59
2022/07/06 10:38:49;;;;;;;1.15;0.50;;;;;;;;;;5030066;28;20025;-59
2022/07/06 10:41:15;;;;;;;0.70;0.38;;;;;;;;;;5030430;28;20095;-59
2022/07/06 10:43:45;;;;;;;1.85;0.32;;;;;;;;;;5030992;28;20035;-59
2022/07/06 10:46:16;;;;;;;0.80;0.30;;;;;;;;;;5031227;28;20097;-57
2022/07/06 10:48:43;;;;;;;1.42;0.65;;;;;;;;;;5030337;28;20408;-58
2022/07/06 10:51:13;;;;;;;1.75;0.57;;;;;;;;;;5029898;28;20105;-59
2022/07/06 10:53:40;;;;;;;1.23;0.60;;;;;;;;;;5032666;28;20358;-59
2022/07/06 10:56:07;;;;;;;1.50;0.85;;;;;;;;;;5025559;28;20490;-59
2022/07/06 10:58:41;;;;;;;2.22;0.57;;;;;;;;;;5030229;28;20057;-58
2022/07/06 11:01:07;;;;;;;2.72;0.90;;;;;;;;;;5028273;28;20029;-59
2022/07/06 11:03:39;;;;;;;3.63;0.90;;;;;;;;;;5030779;28;20033;-58
2022/07/06 11:06:09;;;;;;;3.47;0.85;;;;;;;;;;5029050;28;20029;-59
2022/07/06 11:08:42;;;;;;;2.60;0.50;;;;;;;;;;5029552;28;20033;-59
2022/07/06 11:11:18;;;;;;;2.20;0.65;;;;;;;;;;5028689;28;20025;-58
2022/07/06 11:13:48;;;;;;;4.88;0.77;;;;;;;;;;5037884;28;20034;-59
2022/07/06 11:16:15;;;;;;;1.42;0.52;;;;;;;;;;5030814;28;20119;-59
2022/07/06 11:18:41;;;;;;;1.90;0.55;;;;;;;;;;5030148;28;20032;-59
2022/07/06 11:21:17;;;;;;;4.95;0.57;;;;;;;;;;5028465;28;20485;-59
2022/07/06 11:23:45;;;;;;;1.33;0.50;;;;;;;;;;5030667;28;20041;-59
2022/07/06 11:26:12;;;;;;;1.45;0.35;;;;;;;;;;5012512;28;20104;-59
2022/07/06 11:28:38;;;;;;;1.27;0.40;;;;;;;;;;5030073;28;20038;-58
2022/07/06 11:31:04;;;;;;;3.30;0.50;;;;;;;;;;5030170;28;20771;-58
2022/07/06 11:33:31;;;;;;;1.30;0.30;;;;;;;;;;5028064;28;20087;-59
2022/07/06 11:36:16;;;;;;;1.08;0.40;;;;;;;;;;5029741;28;20060;-59
2022/07/06 11:38:42;;;;;;;1.88;0.50;;;;;;;;;;5027264;28;20044;-58
2022/07/06 11:41:09;;;;;;;2.83;0.35;;;;;;;;;;5029290;28;20045;-59
2022/07/06 11:43:35;;;;;;;2.65;0.40;;;;;;;;;;5022004;28;20034;-58
2022/07/06 11:46:01;;;;;;;4.30;0.32;;;;;;;;;;5027387;28;20029;-59
2022/07/06 11:48:27;;;;;;;3.45;0.98;;;;;;;;;;5027115;28;20030;-59
2022/07/06 11:51:03;;;;;;;2.13;0.30;;;;;;;;;;5006844;28;20030;-59
2022/07/06 11:53:29;;;;;;;2.33;0.47;;;;;;;;;;5009612;28;20025;-59
2022/07/06 11:55:55;;;;;;;4.70;0.60;;;;;;;;;;5022699;28;20032;-59
2022/07/06 11:58:23;;;;;;;2.38;0.30;;;;;;;;;;5029279;28;20028;-59
2022/07/06 12:01:08;;;;;;;3.53;0.45;;;;;;;;;;5028668;28;20025;-58
2022/07/06 12:03:34;;;;;;;2.75;0.57;;;;;;;;;;5029798;28;20036;-59
2022/07/06 12:06:01;;;;;;;3.00;0.35;;;;;;;;;;5029066;28;20033;-59
2022/07/06 12:08:27;;;;;;;2.22;0.30;;;;;;;;;;5030667;28;20520;-59
2022/07/06 12:10:54;;;;;;;5.80;0.63;;;;;;;;;;5029408;28;20060;-59
2022/07/06 12:13:20;;;;;;;1.00;0.38;;;;;;;;;;5030280;28;20064;-58
2022/07/06 12:15:46;;;;;;;2.30;0.43;;;;;;;;;;5030899;28;20029;-59
2022/07/06 12:18:12;;;;;;;2.20;0.40;;;;;;;;;;5034104;28;20381;-59
2022/07/06 12:20:38;;;;;;;3.28;0.52;;;;;;;;;;5031883;28;20033;-59
2022/07/06 12:23:04;;;;;;;3.33;0.73;;;;;;;;;;5033985;28;20124;-60
2022/07/06 12:25:31;;;;;;;3.53;0.70;;;;;;;;;;5023361;28;20026;-59
2022/07/06 12:27:57;;;;;;;2.90;0.80;;;;;;;;;;5033066;28;20042;-59
2022/07/06 12:30:23;;;;;;;3.67;0.65;;;;;;;;;;5030067;28;20504;-58
2022/07/06 12:33:09;;;;;;;2.65;1.00;;;;;;;;;;5036485;28;20037;-59
2022/07/06 12:35:35;;;;;;;2.42;1.10;;;;;;;;;;5026361;28;20028;-59
2022/07/06 12:38:01;;;;;;;3.92;1.90;;;;;;;;;;5031239;28;20041;-59
2022/07/06 12:40:28;;;;;;;9.93;3.67;;;;;;;;;;5034521;28;20029;-58
2022/07/06 12:42:54;;;;;;;7.63;3.75;;;;;;;;;;5031656;28;20029;-58
2022/07/06 12:45:20;;;;;;;6.45;4.28;;;;;;;;;;5032561;28;20029;-58
2022/07/06 12:48:00;;;;;;;8.63;5.50;;;;;;;;;;5027985;28;20030;-58
2022/07/06 12:50:39;;;;;;;12.30;6.90;;;;;;;;;;5031046;28;20029;-59
2022/07/06 12:53:06;;;;;;;11.77;7.55;;;;;;;;;;5030289;28;20033;-59
2022/07/06 12:55:32;;;;;;;11.10;5.63;;;;;;;;;;5032286;28;20022;-59
2022/07/06 12:57:59;;;;;;;9.75;5.05;;;;;;;;;;5031511;28;20033;-58
2022/07/06 13:00:25;;;;;;;7.55;4.75;;;;;;;;;;5030955;28;20481;-59
2022/07/06 13:02:55;;;;;;;10.95;5.13;;;;;;;;;;5029847;28;20065;-59
2022/07/06 13:05:27;;;;;;;12.90;5.63;;;;;;;;;;5031100;28;20044;-58
2022/07/06 13:07:54;;;;;;;10.13;5.50;;;;;;;;;;5031834;28;20030;-59
2022/07/06 13:10:20;;;;;;;7.88;5.47;;;;;;;;;;5035261;28;20147;-59
2022/07/06 13:12:46;;;;;;;8.60;3.50;;;;;;;;;;5028613;28;20088;-59
2022/07/06 13:15:12;;;;;;;4.95;2.47;;;;;;;;;;5032678;28;20037;-59
2022/07/06 13:17:38;;;;;;;4.10;1.85;;;;;;;;;;5032272;28;20038;-59
2022/07/06 13:20:09;;;;;;;5.25;2.33;;;;;;;;;;5027160;28;20034;-58
2022/07/06 13:22:35;;;;;;;6.25;2.50;;;;;;;;;;5032576;28;20021;-59
2022/07/06 13:25:01;;;;;;;11.98;4.10;;;;;;;;;;5031910;28;20034;-59
2022/07/06 13:27:27;;;;;;;9.10;3.35;;;;;;;;;;5030920;28;20111;-59
2022/07/06 13:29:53;;;;;;;6.40;2.70;;;;;;;;;;5028083;28;20036;-59
2022/07/06 13:32:19;;;;;;;5.80;2.40;;;;;;;;;;5028093;28;20029;-59
2022/07/06 13:34:45;;;;;;;5.57;2.47;;;;;;;;;;5029696;28;20429;-59
2022/07/06 13:37:11;;;;;;;4.60;1.67;;;;;;;;;;5015287;28;20029;-58
2022/07/06 13:39:37;;;;;;;6.72;1.13;;;;;;;;;;5031168;28;20040;-58
2022/07/06 13:42:03;;;;;;;5.97;1.00;;;;;;;;;;5030548;28;20537;-59
2022/07/06 13:44:29;;;;;;;3.05;0.90;;;;;;;;;;5029665;28;20026;-59
2022/07/06 13:46:55;;;;;;;2.60;0.68;;;;;;;;;;5034329;28;20404;-58
2022/07/06 13:49:21;;;;;;;2.08;0.40;;;;;;;;;;5029397;28;20662;-59
2022/07/06 13:51:47;;;;;;;0.57;0.30;;;;;;;;;;5033036;28;20025;-59
2022/07/06 13:54:13;;;;;;;1.10;0.30;;;;;;;;;;5031276;28;20041;-59
2022/07/06 13:56:40;;;;;;;1.67;0.30;;;;;;;;;;5026867;28;20057;-58
2022/07/06 13:59:06;;;;;;;5.43;0.70;;;;;;;;;;5030175;28;20104;-59
2022/07/06 14:01:32;;;;;;;5.32;0.65;;;;;;;;;;5029013;28;20042;-59
2022/07/06 14:03:58;;;;;;;1.38;0.35;;;;;;;;;;5034587;28;20088;-60
2022/07/06 14:06:24;;;;;;;1.38;0.30;;;;;;;;;;5031773;28;20037;-59
2022/07/06 14:08:51;;;;;;;2.45;0.28;;;;;;;;;;5030030;28;20096;-59
2022/07/06 14:11:17;;;;;;;2.08;0.30;;;;;;;;;;5031523;28;20117;-59
2022/07/06 14:13:43;;;;;;;4.60;0.38;;;;;;;;;;5030284;28;20096;-59
2022/07/06 14:16:09;;;;;;;3.13;0.43;;;;;;;;;;5030375;28;20481;-59
2022/07/06 14:18:35;;;;;;;2.40;0.52;;;;;;;;;;5029330;28;20388;-59
2022/07/06 14:21:01;;;;;;;3.67;0.60;;;;;;;;;;5031457;28;20025;-59
2022/07/06 14:23:31;;;;;;;8.40;1.00;;;;;;;;;;5029189;28;20048;-59
2022/07/06 14:25:57;;;;;;;2.70;1.27;;;;;;;;;;5031052;28;20546;-59
2022/07/06 14:28:23;;;;;;;3.65;1.25;;;;;;;;;;5026806;28;20053;-58
2022/07/06 14:30:50;;;;;;;7.88;1.50;;;;;;;;;;5011625;28;20116;-59
2022/07/06 14:33:16;;;;;;;5.50;1.77;;;;;;;;;;5031269;28;20029;-59
2022/07/06 14:35:44;;;;;;;5.93;2.28;;;;;;;;;;5025231;28;20169;-58
2022/07/06 14:38:10;;;;;;;3.92;1.63;;;;;;;;;;5028785;28;20037;-59
2022/07/06 14:40:36;;;;;;;4.28;1.80;;;;;;;;;;5031548;28;20052;-58
2022/07/06 14:43:03;;;;;;;3.47;1.40;;;;;;;;;;5042827;28;20043;-58